sensor_id;sensor_type;location;lat;lon;timestamp;P1;durP1;ratioP1;P2;durP2;ratioP2
66581;SDS011;53438;48.898;2.308;2024-01-30T00:01:50;14.07;;;7.75;;
66581;SDS011;53438;48.898;2.308;2024-01-30T00:04:16;14.43;;;7.90;;
66581;SDS011;53438;48.898;2.308;2024-01-30T00:06:42;12.47;;;7.97;;
66581;SDS011;53438;48.898;2.308;2024-01-30T00:09:08;13.20;;;7.32;;
66581;SDS011;53438;48.898;2.308;2024-01-30T00:11:34;13.73;;;7.80;;
66581;SDS011;53438;48.898;2.308;2024-01-30T00:13:59;10.30;;;7.07;;
66581;SDS011;53438;48.898;2.308;2024-01-30T00:16:25;12.27;;;7.40;;
66581;SDS011;53438;48.898;2.308;2024-01-30T00:18:50;12.70;;;7.28;;
66581;SDS011;53438;48.898;2.308;2024-01-30T00:21:17;10.90;;;7.37;;
66581;SDS011;53438;48.898;2.308;2024-01-30T00:23:43;14.05;;;7.53;;
66581;SDS011;53438;48.898;2.308;2024-01-30T00:26:09;11.00;;;7.40;;
66581;SDS011;53438;48.898;2.308;2024-01-30T00:28:36;13.60;;;7.97;;
66581;SDS011;53438;48.898;2.308;2024-01-30T00:31:04;12.95;;;7.55;;
66581;SDS011;53438;48.898;2.308;2024-01-30T00:33:29;10.27;;;6.97;;
66581;SDS011;53438;48.898;2.308;2024-01-30T00:35:55;11.93;;;7.33;;
66581;SDS011;53438;48.898;2.308;2024-01-30T00:38:21;12.55;;;7.30;;
66581;SDS011;53438;48.898;2.308;2024-01-30T00:40:47;13.87;;;7.23;;
66581;SDS011;53438;48.898;2.308;2024-01-30T00:43:13;11.75;;;6.65;;
66581;SDS011;53438;48.898;2.308;2024-01-30T00:45:38;9.40;;;6.43;;
66581;SDS011;53438;48.898;2.308;2024-01-30T00:48:03;10.17;;;6.57;;
66581;SDS011;53438;48.898;2.308;2024-01-30T00:50:29;11.70;;;6.70;;
66581;SDS011;53438;48.898;2.308;2024-01-30T00:52:54;10.82;;;7.03;;
66581;SDS011;53438;48.898;2.308;2024-01-30T00:55:19;11.30;;;7.30;;
66581;SDS011;53438;48.898;2.308;2024-01-30T00:57:45;9.60;;;6.53;;
66581;SDS011;53438;48.898;2.308;2024-01-30T04:00:27;8.70;;;4.60;;
66581;SDS011;53438;48.898;2.308;2024-01-30T04:02:53;12.13;;;5.63;;
66581;SDS011;53438;48.898;2.308;2024-01-30T04:05:19;8.33;;;5.00;;
66581;SDS011;53438;48.898;2.308;2024-01-30T04:07:44;7.10;;;5.00;;
66581;SDS011;53438;48.898;2.308;2024-01-30T04:10:09;8.90;;;4.70;;
66581;SDS011;53438;48.898;2.308;2024-01-30T04:12:35;9.93;;;4.85;;
66581;SDS011;53438;48.898;2.308;2024-01-30T04:15:01;7.28;;;4.90;;
66581;SDS011;53438;48.898;2.308;2024-01-30T04:17:26;8.98;;;5.13;;
66581;SDS011;53438;48.898;2.308;2024-01-30T04:19:53;8.18;;;5.20;;
66581;SDS011;53438;48.898;2.308;2024-01-30T04:22:18;6.87;;;4.50;;
66581;SDS011;53438;48.898;2.308;2024-01-30T04:24:43;6.43;;;4.20;;
66581;SDS011;53438;48.898;2.308;2024-01-30T04:27:10;8.25;;;4.13;;
66581;SDS011;53438;48.898;2.308;2024-01-30T04:29:35;8.43;;;4.43;;
66581;SDS011;53438;48.898;2.308;2024-01-30T04:32:01;10.33;;;4.73;;
66581;SDS011;53438;48.898;2.308;2024-01-30T04:34:26;10.90;;;4.43;;
66581;SDS011;53438;48.898;2.308;2024-01-30T04:36:51;7.97;;;4.73;;
66581;SDS011;53438;48.898;2.308;2024-01-30T04:39:17;10.07;;;4.43;;
66581;SDS011;53438;48.898;2.308;2024-01-30T04:41:42;9.33;;;4.23;;
66581;SDS011;53438;48.898;2.308;2024-01-30T04:44:07;9.90;;;4.43;;
66581;SDS011;53438;48.898;2.308;2024-01-30T04:46:33;8.30;;;4.40;;
66581;SDS011;53438;48.898;2.308;2024-01-30T04:48:59;9.02;;;4.20;;
66581;SDS011;53438;48.898;2.308;2024-01-30T04:51:25;7.20;;;4.10;;
66581;SDS011;53438;48.898;2.308;2024-01-30T04:53:50;14.83;;;4.70;;
66581;SDS011;53438;48.898;2.308;2024-01-30T04:56:15;5.47;;;3.73;;
66581;SDS011;53438;48.898;2.308;2024-01-30T04:58:41;12.67;;;4.10;;
66581;SDS011;53438;48.898;2.308;2024-01-30T05:01:06;10.63;;;4.57;;
66581;SDS011;53438;48.898;2.308;2024-01-30T05:03:35;7.68;;;4.15;;
66581;SDS011;53438;48.898;2.308;2024-01-30T05:06:00;8.50;;;4.47;;
66581;SDS011;53438;48.898;2.308;2024-01-30T05:08:25;7.95;;;4.13;;
66581;SDS011;53438;48.898;2.308;2024-01-30T05:10:51;8.63;;;4.47;;
66581;SDS011;53438;48.898;2.308;2024-01-30T05:13:16;8.13;;;4.20;;
66581;SDS011;53438;48.898;2.308;2024-01-30T05:15:41;9.60;;;4.67;;
66581;SDS011;53438;48.898;2.308;2024-01-30T05:18:07;6.43;;;3.80;;
66581;SDS011;53438;48.898;2.308;2024-01-30T05:20:32;10.57;;;5.10;;
66581;SDS011;53438;48.898;2.308;2024-01-30T05:22:57;11.97;;;4.93;;
66581;SDS011;53438;48.898;2.308;2024-01-30T05:25:23;7.33;;;4.80;;
66581;SDS011;53438;48.898;2.308;2024-01-30T05:27:48;10.10;;;4.10;;
66581;SDS011;53438;48.898;2.308;2024-01-30T05:30:14;11.33;;;5.00;;
66581;SDS011;53438;48.898;2.308;2024-01-30T05:32:40;10.90;;;5.35;;
66581;SDS011;53438;48.898;2.308;2024-01-30T05:35:05;10.00;;;4.93;;
66581;SDS011;53438;48.898;2.308;2024-01-30T05:37:32;8.43;;;4.30;;
66581;SDS011;53438;48.898;2.308;2024-01-30T05:39:58;8.20;;;4.33;;
66581;SDS011;53438;48.898;2.308;2024-01-30T05:42:23;7.73;;;4.13;;
66581;SDS011;53438;48.898;2.308;2024-01-30T05:44:49;8.98;;;4.13;;
66581;SDS011;53438;48.898;2.308;2024-01-30T05:47:15;7.70;;;4.00;;
66581;SDS011;53438;48.898;2.308;2024-01-30T05:49:40;8.55;;;3.70;;
66581;SDS011;53438;48.898;2.308;2024-01-30T05:52:06;7.25;;;3.92;;
66581;SDS011;53438;48.898;2.308;2024-01-30T05:54:31;11.40;;;5.00;;
66581;SDS011;53438;48.898;2.308;2024-01-30T05:56:57;9.30;;;4.17;;
66581;SDS011;53438;48.898;2.308;2024-01-30T05:59:22;6.90;;;4.20;;
66581;SDS011;53438;48.898;2.308;2024-01-30T06:01:47;8.30;;;4.20;;
66581;SDS011;53438;48.898;2.308;2024-01-30T06:04:13;11.75;;;4.10;;
66581;SDS011;53438;48.898;2.308;2024-01-30T06:06:39;8.20;;;4.70;;
66581;SDS011;53438;48.898;2.308;2024-01-30T06:09:05;7.72;;;4.75;;
66581;SDS011;53438;48.898;2.308;2024-01-30T06:11:33;7.77;;;4.37;;
66581;SDS011;53438;48.898;2.308;2024-01-30T06:13:58;10.25;;;5.28;;
66581;SDS011;53438;48.898;2.308;2024-01-30T06:16:23;10.70;;;4.53;;
66581;SDS011;53438;48.898;2.308;2024-01-30T06:18:49;8.33;;;4.77;;
66581;SDS011;53438;48.898;2.308;2024-01-30T06:21:14;10.37;;;4.80;;
66581;SDS011;53438;48.898;2.308;2024-01-30T06:23:39;17.87;;;4.10;;
66581;SDS011;53438;48.898;2.308;2024-01-30T06:26:06;8.60;;;3.97;;
66581;SDS011;53438;48.898;2.308;2024-01-30T06:28:32;13.85;;;5.57;;
66581;SDS011;53438;48.898;2.308;2024-01-30T06:30:57;10.90;;;4.80;;
66581;SDS011;53438;48.898;2.308;2024-01-30T06:33:22;11.20;;;4.80;;
66581;SDS011;53438;48.898;2.308;2024-01-30T06:35:48;9.73;;;4.43;;
66581;SDS011;53438;48.898;2.308;2024-01-30T06:38:13;14.13;;;4.85;;
66581;SDS011;53438;48.898;2.308;2024-01-30T06:40:40;9.47;;;4.67;;
66581;SDS011;53438;48.898;2.308;2024-01-30T06:43:06;11.57;;;4.75;;
66581;SDS011;53438;48.898;2.308;2024-01-30T06:45:32;9.73;;;4.90;;
66581;SDS011;53438;48.898;2.308;2024-01-30T06:47:59;8.25;;;4.03;;
66581;SDS011;53438;48.898;2.308;2024-01-30T06:50:24;10.47;;;4.90;;
66581;SDS011;53438;48.898;2.308;2024-01-30T06:52:50;10.57;;;4.50;;
66581;SDS011;53438;48.898;2.308;2024-01-30T06:55:16;8.48;;;4.60;;
66581;SDS011;53438;48.898;2.308;2024-01-30T06:57:41;8.67;;;4.60;;
66581;SDS011;53438;48.898;2.308;2024-01-30T07:00:06;10.03;;;4.90;;
66581;SDS011;53438;48.898;2.308;2024-01-30T07:02:32;11.73;;;5.22;;
66581;SDS011;53438;48.898;2.308;2024-01-30T07:04:58;7.97;;;5.13;;
66581;SDS011;53438;48.898;2.308;2024-01-30T07:07:23;9.57;;;4.77;;
66581;SDS011;53438;48.898;2.308;2024-01-30T07:09:48;10.10;;;5.20;;
66581;SDS011;53438;48.898;2.308;2024-01-30T07:12:17;9.88;;;4.93;;
66581;SDS011;53438;48.898;2.308;2024-01-30T07:14:43;11.77;;;5.30;;
66581;SDS011;53438;48.898;2.308;2024-01-30T07:17:08;8.80;;;4.63;;
66581;SDS011;53438;48.898;2.308;2024-01-30T07:19:34;10.87;;;4.80;;
66581;SDS011;53438;48.898;2.308;2024-01-30T07:22:00;9.98;;;5.43;;
66581;SDS011;53438;48.898;2.308;2024-01-30T07:24:26;11.07;;;5.40;;
66581;SDS011;53438;48.898;2.308;2024-01-30T07:26:51;12.10;;;5.32;;
66581;SDS011;53438;48.898;2.308;2024-01-30T07:29:17;11.43;;;5.40;;
66581;SDS011;53438;48.898;2.308;2024-01-30T07:31:44;9.77;;;5.35;;
66581;SDS011;53438;48.898;2.308;2024-01-30T07:34:09;9.75;;;5.30;;
66581;SDS011;53438;48.898;2.308;2024-01-30T07:36:36;12.95;;;5.63;;
66581;SDS011;53438;48.898;2.308;2024-01-30T07:39:03;16.27;;;5.88;;
66581;SDS011;53438;48.898;2.308;2024-01-30T07:41:29;10.37;;;5.60;;
66581;SDS011;53438;48.898;2.308;2024-01-30T07:43:56;11.35;;;5.75;;
66581;SDS011;53438;48.898;2.308;2024-01-30T07:46:21;13.15;;;5.72;;
66581;SDS011;53438;48.898;2.308;2024-01-30T07:48:47;9.75;;;5.22;;
66581;SDS011;53438;48.898;2.308;2024-01-30T07:51:13;15.47;;;5.60;;
66581;SDS011;53438;48.898;2.308;2024-01-30T07:53:38;13.60;;;5.33;;
66581;SDS011;53438;48.898;2.308;2024-01-30T07:56:04;12.93;;;5.90;;
66581;SDS011;53438;48.898;2.308;2024-01-30T07:58:30;12.07;;;5.20;;
66581;SDS011;53438;48.898;2.308;2024-01-30T08:00:56;9.47;;;5.70;;
66581;SDS011;53438;48.898;2.308;2024-01-30T08:03:23;11.32;;;5.75;;
66581;SDS011;53438;48.898;2.308;2024-01-30T08:05:49;12.27;;;5.32;;
66581;SDS011;53438;48.898;2.308;2024-01-30T08:08:14;13.80;;;5.70;;
66581;SDS011;53438;48.898;2.308;2024-01-30T08:10:41;11.30;;;5.57;;
66581;SDS011;53438;48.898;2.308;2024-01-30T08:13:06;13.35;;;5.93;;
66581;SDS011;53438;48.898;2.308;2024-01-30T08:15:33;12.93;;;5.47;;
66581;SDS011;53438;48.898;2.308;2024-01-30T08:17:59;12.03;;;6.90;;
66581;SDS011;53438;48.898;2.308;2024-01-30T08:20:24;14.03;;;6.43;;
66581;SDS011;53438;48.898;2.308;2024-01-30T08:22:50;12.75;;;6.05;;
66581;SDS011;53438;48.898;2.308;2024-01-30T08:25:16;12.32;;;5.45;;
66581;SDS011;53438;48.898;2.308;2024-01-30T08:27:41;11.27;;;5.60;;
66581;SDS011;53438;48.898;2.308;2024-01-30T08:30:07;14.27;;;6.23;;
66581;SDS011;53438;48.898;2.308;2024-01-30T08:32:34;12.15;;;5.80;;
66581;SDS011;53438;48.898;2.308;2024-01-30T08:35:00;16.27;;;6.17;;
66581;SDS011;53438;48.898;2.308;2024-01-30T08:37:28;12.73;;;5.93;;
66581;SDS011;53438;48.898;2.308;2024-01-30T08:39:54;15.63;;;6.30;;
66581;SDS011;53438;48.898;2.308;2024-01-30T08:42:19;16.95;;;6.50;;
66581;SDS011;53438;48.898;2.308;2024-01-30T08:44:47;26.25;;;8.75;;
66581;SDS011;53438;48.898;2.308;2024-01-30T08:47:14;18.40;;;6.10;;
66581;SDS011;53438;48.898;2.308;2024-01-30T08:49:42;18.15;;;5.72;;
66581;SDS011;53438;48.898;2.308;2024-01-30T08:52:09;14.65;;;6.18;;
66581;SDS011;53438;48.898;2.308;2024-01-30T08:54:35;13.45;;;5.88;;
66581;SDS011;53438;48.898;2.308;2024-01-30T08:57:00;17.20;;;6.17;;
66581;SDS011;53438;48.898;2.308;2024-01-30T08:59:25;12.20;;;5.60;;
66581;SDS011;53438;48.898;2.308;2024-01-30T09:01:51;13.30;;;6.10;;
66581;SDS011;53438;48.898;2.308;2024-01-30T09:04:19;16.10;;;6.50;;
66581;SDS011;53438;48.898;2.308;2024-01-30T09:06:44;15.53;;;6.00;;
66581;SDS011;53438;48.898;2.308;2024-01-30T09:09:10;15.23;;;6.50;;
66581;SDS011;53438;48.898;2.308;2024-01-30T09:11:35;13.27;;;6.37;;
66581;SDS011;53438;48.898;2.308;2024-01-30T09:14:01;17.27;;;7.03;;
66581;SDS011;53438;48.898;2.308;2024-01-30T09:16:26;14.37;;;5.93;;
66581;SDS011;53438;48.898;2.308;2024-01-30T09:18:51;11.75;;;5.75;;
66581;SDS011;53438;48.898;2.308;2024-01-30T09:21:16;13.33;;;5.83;;
66581;SDS011;53438;48.898;2.308;2024-01-30T09:23:42;16.47;;;6.60;;
66581;SDS011;53438;48.898;2.308;2024-01-30T09:26:07;19.23;;;7.17;;
66581;SDS011;53438;48.898;2.308;2024-01-30T09:28:32;16.10;;;6.07;;
66581;SDS011;53438;48.898;2.308;2024-01-30T09:30:58;14.73;;;6.03;;
66581;SDS011;53438;48.898;2.308;2024-01-30T09:33:23;12.57;;;6.10;;
66581;SDS011;53438;48.898;2.308;2024-01-30T09:35:48;16.50;;;6.83;;
66581;SDS011;53438;48.898;2.308;2024-01-30T09:38:15;13.23;;;5.45;;
66581;SDS011;53438;48.898;2.308;2024-01-30T09:40:40;9.73;;;5.07;;
66581;SDS011;53438;48.898;2.308;2024-01-30T09:43:07;18.13;;;6.82;;
66581;SDS011;53438;48.898;2.308;2024-01-30T09:45:32;15.73;;;5.70;;
66581;SDS011;53438;48.898;2.308;2024-01-30T09:47:59;17.08;;;5.60;;
66581;SDS011;53438;48.898;2.308;2024-01-30T09:50:25;11.55;;;5.43;;
66581;SDS011;53438;48.898;2.308;2024-01-30T09:52:52;12.13;;;5.60;;
66581;SDS011;53438;48.898;2.308;2024-01-30T09:55:20;12.55;;;5.35;;
66581;SDS011;53438;48.898;2.308;2024-01-30T09:57:45;11.40;;;5.18;;
66581;SDS011;53438;48.898;2.308;2024-01-30T10:00:12;14.38;;;5.15;;
66581;SDS011;53438;48.898;2.308;2024-01-30T10:02:38;13.95;;;4.93;;
66581;SDS011;53438;48.898;2.308;2024-01-30T10:05:04;12.05;;;4.72;;
66581;SDS011;53438;48.898;2.308;2024-01-30T10:07:30;9.90;;;5.07;;
66581;SDS011;53438;48.898;2.308;2024-01-30T10:09:55;11.18;;;4.57;;
66581;SDS011;53438;48.898;2.308;2024-01-30T10:12:21;11.10;;;5.03;;
66581;SDS011;53438;48.898;2.308;2024-01-30T10:14:47;11.00;;;5.33;;
66581;SDS011;53438;48.898;2.308;2024-01-30T10:17:13;12.85;;;4.85;;
66581;SDS011;53438;48.898;2.308;2024-01-30T10:19:39;11.17;;;5.00;;
66581;SDS011;53438;48.898;2.308;2024-01-30T10:22:05;10.45;;;4.25;;
66581;SDS011;53438;48.898;2.308;2024-01-30T10:24:30;10.83;;;5.00;;
66581;SDS011;53438;48.898;2.308;2024-01-30T10:26:56;14.93;;;5.20;;
66581;SDS011;53438;48.898;2.308;2024-01-30T10:29:21;10.45;;;4.40;;
66581;SDS011;53438;48.898;2.308;2024-01-30T10:32:02;10.27;;;4.20;;
66581;SDS011;53438;48.898;2.308;2024-01-30T10:34:29;9.38;;;3.55;;
66581;SDS011;53438;48.898;2.308;2024-01-30T10:36:59;6.63;;;3.80;;
66581;SDS011;53438;48.898;2.308;2024-01-30T10:39:40;15.25;;;3.70;;
66581;SDS011;53438;48.898;2.308;2024-01-30T10:42:09;9.65;;;3.88;;
66581;SDS011;53438;48.898;2.308;2024-01-30T10:47:29;11.93;;;4.40;;
66581;SDS011;53438;48.898;2.308;2024-01-30T10:49:55;12.32;;;4.40;;
66581;SDS011;53438;48.898;2.308;2024-01-30T10:52:22;13.32;;;3.85;;
66581;SDS011;53438;48.898;2.308;2024-01-30T10:54:51;11.52;;;3.78;;
66581;SDS011;53438;48.898;2.308;2024-01-30T10:57:19;10.30;;;3.70;;
66581;SDS011;53438;48.898;2.308;2024-01-30T10:59:44;14.05;;;4.50;;
66581;SDS011;53438;48.898;2.308;2024-01-30T11:02:12;11.02;;;3.92;;
66581;SDS011;53438;48.898;2.308;2024-01-30T11:04:40;10.38;;;3.72;;
66581;SDS011;53438;48.898;2.308;2024-01-30T11:07:13;14.63;;;4.38;;
66581;SDS011;53438;48.898;2.308;2024-01-30T11:09:52;11.33;;;4.30;;
66581;SDS011;53438;48.898;2.308;2024-01-30T11:12:22;12.40;;;3.40;;
66581;SDS011;53438;48.898;2.308;2024-01-30T11:14:49;9.85;;;4.60;;
66581;SDS011;53438;48.898;2.308;2024-01-30T11:17:27;10.23;;;4.55;;
66581;SDS011;53438;48.898;2.308;2024-01-30T11:19:53;17.48;;;5.13;;
66581;SDS011;53438;48.898;2.308;2024-01-30T11:22:20;11.20;;;4.70;;
66581;SDS011;53438;48.898;2.308;2024-01-30T11:24:45;16.57;;;6.87;;
66581;SDS011;53438;48.898;2.308;2024-01-30T11:27:12;15.85;;;6.68;;
66581;SDS011;53438;48.898;2.308;2024-01-30T11:29:38;15.13;;;5.85;;
66581;SDS011;53438;48.898;2.308;2024-01-30T11:32:05;15.60;;;6.43;;
66581;SDS011;53438;48.898;2.308;2024-01-30T11:34:30;11.37;;;3.63;;
66581;SDS011;53438;48.898;2.308;2024-01-30T11:36:59;13.95;;;4.50;;
66581;SDS011;53438;48.898;2.308;2024-01-30T11:39:31;8.83;;;3.33;;
66581;SDS011;53438;48.898;2.308;2024-01-30T11:41:57;10.25;;;2.78;;
66581;SDS011;53438;48.898;2.308;2024-01-30T11:44:23;7.32;;;3.40;;
66581;SDS011;53438;48.898;2.308;2024-01-30T11:46:49;11.30;;;3.40;;
66581;SDS011;53438;48.898;2.308;2024-01-30T11:49:15;12.77;;;4.22;;
66581;SDS011;53438;48.898;2.308;2024-01-30T11:51:42;9.40;;;3.70;;
66581;SDS011;53438;48.898;2.308;2024-01-30T11:54:08;23.97;;;9.60;;
66581;SDS011;53438;48.898;2.308;2024-01-30T11:56:33;14.07;;;4.65;;
66581;SDS011;53438;48.898;2.308;2024-01-30T11:58:59;5.87;;;2.97;;
66581;SDS011;53438;48.898;2.308;2024-01-30T12:01:25;6.50;;;2.25;;
66581;SDS011;53438;48.898;2.308;2024-01-30T12:03:51;6.60;;;2.00;;
66581;SDS011;53438;48.898;2.308;2024-01-30T12:06:17;10.63;;;2.05;;
66581;SDS011;53438;48.898;2.308;2024-01-30T12:08:42;15.27;;;3.60;;
66581;SDS011;53438;48.898;2.308;2024-01-30T12:11:08;11.10;;;3.50;;
66581;SDS011;53438;48.898;2.308;2024-01-30T12:13:33;8.03;;;2.60;;
66581;SDS011;53438;48.898;2.308;2024-01-30T12:15:59;7.95;;;2.50;;
66581;SDS011;53438;48.898;2.308;2024-01-30T12:18:27;9.13;;;2.85;;
66581;SDS011;53438;48.898;2.308;2024-01-30T12:20:58;10.13;;;3.65;;
66581;SDS011;53438;48.898;2.308;2024-01-30T12:23:25;15.00;;;4.27;;
66581;SDS011;53438;48.898;2.308;2024-01-30T12:25:51;6.80;;;2.45;;
66581;SDS011;53438;48.898;2.308;2024-01-30T12:28:17;7.30;;;2.80;;
66581;SDS011;53438;48.898;2.308;2024-01-30T12:30:43;9.87;;;2.30;;
66581;SDS011;53438;48.898;2.308;2024-01-30T12:33:08;13.43;;;2.70;;
66581;SDS011;53438;48.898;2.308;2024-01-30T12:35:35;15.18;;;2.75;;
66581;SDS011;53438;48.898;2.308;2024-01-30T12:38:01;5.72;;;2.33;;
66581;SDS011;53438;48.898;2.308;2024-01-30T12:40:27;7.88;;;2.75;;
66581;SDS011;53438;48.898;2.308;2024-01-30T12:42:53;5.00;;;2.83;;
66581;SDS011;53438;48.898;2.308;2024-01-30T12:45:19;10.43;;;3.88;;
66581;SDS011;53438;48.898;2.308;2024-01-30T12:47:47;7.10;;;2.70;;
66581;SDS011;53438;48.898;2.308;2024-01-30T12:50:13;7.95;;;2.83;;
66581;SDS011;53438;48.898;2.308;2024-01-30T12:52:40;10.73;;;2.85;;
66581;SDS011;53438;48.898;2.308;2024-01-30T12:55:06;5.55;;;2.30;;
66581;SDS011;53438;48.898;2.308;2024-01-30T12:57:32;20.73;;;4.00;;
66581;SDS011;53438;48.898;2.308;2024-01-30T12:59:57;9.23;;;2.03;;
66581;SDS011;53438;48.898;2.308;2024-01-30T13:02:23;5.85;;;1.95;;
66581;SDS011;53438;48.898;2.308;2024-01-30T13:04:49;5.67;;;2.10;;
66581;SDS011;53438;48.898;2.308;2024-01-30T13:07:14;5.22;;;2.28;;
66581;SDS011;53438;48.898;2.308;2024-01-30T13:09:40;3.70;;;1.70;;
66581;SDS011;53438;48.898;2.308;2024-01-30T13:12:05;2.90;;;1.40;;
66581;SDS011;53438;48.898;2.308;2024-01-30T13:14:31;6.10;;;2.00;;
66581;SDS011;53438;48.898;2.308;2024-01-30T13:16:56;3.60;;;1.60;;
66581;SDS011;53438;48.898;2.308;2024-01-30T13:19:21;5.27;;;2.00;;
66581;SDS011;53438;48.898;2.308;2024-01-30T13:21:47;4.07;;;1.90;;
66581;SDS011;53438;48.898;2.308;2024-01-30T13:24:12;4.50;;;1.90;;
66581;SDS011;53438;48.898;2.308;2024-01-30T13:26:38;6.07;;;1.50;;
66581;SDS011;53438;48.898;2.308;2024-01-30T13:29:04;6.88;;;1.60;;
66581;SDS011;53438;48.898;2.308;2024-01-30T13:31:29;8.13;;;2.60;;
66581;SDS011;53438;48.898;2.308;2024-01-30T13:33:55;4.65;;;2.20;;
66581;SDS011;53438;48.898;2.308;2024-01-30T13:36:21;8.70;;;2.50;;
66581;SDS011;53438;48.898;2.308;2024-01-30T13:38:46;3.97;;;1.73;;
66581;SDS011;53438;48.898;2.308;2024-01-30T13:41:12;7.13;;;2.30;;
66581;SDS011;53438;48.898;2.308;2024-01-30T13:43:38;2.80;;;1.10;;
66581;SDS011;53438;48.898;2.308;2024-01-30T13:46:03;5.43;;;1.30;;
66581;SDS011;53438;48.898;2.308;2024-01-30T13:48:28;5.35;;;1.70;;
66581;SDS011;53438;48.898;2.308;2024-01-30T13:50:54;4.63;;;1.97;;
66581;SDS011;53438;48.898;2.308;2024-01-30T13:53:20;6.13;;;1.45;;
66581;SDS011;53438;48.898;2.308;2024-01-30T13:55:46;1.77;;;1.17;;
66581;SDS011;53438;48.898;2.308;2024-01-30T13:58:12;3.55;;;1.38;;
66581;SDS011;53438;48.898;2.308;2024-01-30T14:00:37;4.47;;;1.30;;
66581;SDS011;53438;48.898;2.308;2024-01-30T14:03:03;3.13;;;1.48;;
66581;SDS011;53438;48.898;2.308;2024-01-30T14:05:29;5.03;;;1.10;;
66581;SDS011;53438;48.898;2.308;2024-01-30T14:07:54;4.30;;;2.25;;
66581;SDS011;53438;48.898;2.308;2024-01-30T14:10:21;4.40;;;0.97;;
66581;SDS011;53438;48.898;2.308;2024-01-30T14:12:46;3.83;;;0.90;;
66581;SDS011;53438;48.898;2.308;2024-01-30T14:15:15;2.40;;;0.80;;
66581;SDS011;53438;48.898;2.308;2024-01-30T14:17:43;2.28;;;0.75;;
66581;SDS011;53438;48.898;2.308;2024-01-30T14:20:10;8.15;;;1.70;;
66581;SDS011;53438;48.898;2.308;2024-01-30T14:22:35;5.68;;;2.13;;
66581;SDS011;53438;48.898;2.308;2024-01-30T14:25:01;3.55;;;0.90;;
66581;SDS011;53438;48.898;2.308;2024-01-30T14:27:28;3.58;;;1.30;;
66581;SDS011;53438;48.898;2.308;2024-01-30T14:29:55;3.73;;;1.10;;
66581;SDS011;53438;48.898;2.308;2024-01-30T14:32:21;2.13;;;0.80;;
66581;SDS011;53438;48.898;2.308;2024-01-30T14:34:48;2.42;;;1.02;;
66581;SDS011;53438;48.898;2.308;2024-01-30T14:37:13;4.10;;;0.97;;
66581;SDS011;53438;48.898;2.308;2024-01-30T14:39:39;9.57;;;2.70;;
66581;SDS011;53438;48.898;2.308;2024-01-30T14:42:07;5.93;;;0.80;;
66581;SDS011;53438;48.898;2.308;2024-01-30T14:44:32;2.13;;;0.90;;
66581;SDS011;53438;48.898;2.308;2024-01-30T14:46:58;7.70;;;1.00;;
66581;SDS011;53438;48.898;2.308;2024-01-30T14:49:24;2.60;;;1.07;;
66581;SDS011;53438;48.898;2.308;2024-01-30T14:51:50;4.40;;;1.10;;
66581;SDS011;53438;48.898;2.308;2024-01-30T14:54:15;2.63;;;0.88;;
66581;SDS011;53438;48.898;2.308;2024-01-30T14:56:40;2.60;;;0.60;;
66581;SDS011;53438;48.898;2.308;2024-01-30T14:59:06;3.73;;;0.77;;
66581;SDS011;53438;48.898;2.308;2024-01-30T15:01:31;4.00;;;0.70;;
66581;SDS011;53438;48.898;2.308;2024-01-30T15:03:56;3.20;;;0.97;;
66581;SDS011;53438;48.898;2.308;2024-01-30T15:06:23;2.90;;;0.97;;
66581;SDS011;53438;48.898;2.308;2024-01-30T15:08:50;3.65;;;1.08;;
66581;SDS011;53438;48.898;2.308;2024-01-30T15:11:16;10.00;;;1.20;;
66581;SDS011;53438;48.898;2.308;2024-01-30T15:13:41;3.83;;;0.60;;
66581;SDS011;53438;48.898;2.308;2024-01-30T15:16:06;2.60;;;1.20;;
66581;SDS011;53438;48.898;2.308;2024-01-30T15:18:32;5.10;;;1.00;;
66581;SDS011;53438;48.898;2.308;2024-01-30T15:20:58;3.23;;;1.20;;
66581;SDS011;53438;48.898;2.308;2024-01-30T15:23:23;2.13;;;1.07;;
66581;SDS011;53438;48.898;2.308;2024-01-30T15:25:48;6.33;;;0.90;;
66581;SDS011;53438;48.898;2.308;2024-01-30T15:28:13;5.47;;;0.73;;
66581;SDS011;53438;48.898;2.308;2024-01-30T15:30:39;5.55;;;1.00;;
66581;SDS011;53438;48.898;2.308;2024-01-30T15:33:08;8.67;;;1.47;;
66581;SDS011;53438;48.898;2.308;2024-01-30T15:35:34;2.92;;;1.50;;
66581;SDS011;53438;48.898;2.308;2024-01-30T15:37:59;8.53;;;1.80;;
66581;SDS011;53438;48.898;2.308;2024-01-30T15:40:24;3.20;;;0.97;;
66581;SDS011;53438;48.898;2.308;2024-01-30T15:42:50;4.43;;;0.83;;
66581;SDS011;53438;48.898;2.308;2024-01-30T15:45:15;1.87;;;0.90;;
66581;SDS011;53438;48.898;2.308;2024-01-30T15:47:40;4.72;;;0.93;;
66581;SDS011;53438;48.898;2.308;2024-01-30T15:50:06;3.80;;;0.88;;
66581;SDS011;53438;48.898;2.308;2024-01-30T15:52:31;1.93;;;0.57;;
66581;SDS011;53438;48.898;2.308;2024-01-30T15:54:57;3.15;;;0.80;;
66581;SDS011;53438;48.898;2.308;2024-01-30T15:57:22;2.20;;;0.80;;
66581;SDS011;53438;48.898;2.308;2024-01-30T15:59:48;4.63;;;1.33;;
66581;SDS011;53438;48.898;2.308;2024-01-30T16:02:13;5.27;;;2.00;;
66581;SDS011;53438;48.898;2.308;2024-01-30T16:04:43;3.65;;;0.70;;
66581;SDS011;53438;48.898;2.308;2024-01-30T16:07:08;1.97;;;1.00;;
66581;SDS011;53438;48.898;2.308;2024-01-30T16:09:33;2.37;;;1.23;;
66581;SDS011;53438;48.898;2.308;2024-01-30T16:11:59;3.70;;;1.77;;
66581;SDS011;53438;48.898;2.308;2024-01-30T16:14:24;7.83;;;3.50;;
66581;SDS011;53438;48.898;2.308;2024-01-30T16:16:49;7.00;;;2.27;;
66581;SDS011;53438;48.898;2.308;2024-01-30T16:19:15;4.53;;;2.63;;
66581;SDS011;53438;48.898;2.308;2024-01-30T16:21:40;2.30;;;1.00;;
66581;SDS011;53438;48.898;2.308;2024-01-30T16:24:08;3.33;;;1.17;;
66581;SDS011;53438;48.898;2.308;2024-01-30T16:26:35;3.42;;;1.02;;
66581;SDS011;53438;48.898;2.308;2024-01-30T16:29:00;5.73;;;1.83;;
66581;SDS011;53438;48.898;2.308;2024-01-30T16:31:26;4.10;;;1.53;;
66581;SDS011;53438;48.898;2.308;2024-01-30T16:33:51;3.23;;;1.23;;
66581;SDS011;53438;48.898;2.308;2024-01-30T16:36:17;2.95;;;1.45;;
66581;SDS011;53438;48.898;2.308;2024-01-30T16:38:43;3.50;;;1.10;;
66581;SDS011;53438;48.898;2.308;2024-01-30T16:41:08;3.40;;;2.07;;
66581;SDS011;53438;48.898;2.308;2024-01-30T16:43:34;6.47;;;1.80;;
66581;SDS011;53438;48.898;2.308;2024-01-30T16:45:59;3.10;;;1.03;;
66581;SDS011;53438;48.898;2.308;2024-01-30T16:48:26;5.60;;;1.90;;
66581;SDS011;53438;48.898;2.308;2024-01-30T16:50:52;4.55;;;1.40;;
66581;SDS011;53438;48.898;2.308;2024-01-30T16:53:17;8.07;;;1.60;;
66581;SDS011;53438;48.898;2.308;2024-01-30T16:55:43;9.00;;;3.53;;
66581;SDS011;53438;48.898;2.308;2024-01-30T16:58:08;4.97;;;1.52;;
66581;SDS011;53438;48.898;2.308;2024-01-30T17:00:34;7.80;;;1.30;;
66581;SDS011;53438;48.898;2.308;2024-01-30T17:03:01;2.53;;;0.88;;
66581;SDS011;53438;48.898;2.308;2024-01-30T17:05:26;3.83;;;0.70;;
66581;SDS011;53438;48.898;2.308;2024-01-30T17:07:52;2.47;;;0.70;;
66581;SDS011;53438;48.898;2.308;2024-01-30T17:10:18;3.58;;;1.02;;
66581;SDS011;53438;48.898;2.308;2024-01-30T17:12:44;2.88;;;0.88;;
66581;SDS011;53438;48.898;2.308;2024-01-30T17:15:10;4.23;;;1.33;;
66581;SDS011;53438;48.898;2.308;2024-01-30T17:17:36;5.25;;;1.20;;
66581;SDS011;53438;48.898;2.308;2024-01-30T17:20:01;4.33;;;1.07;;
66581;SDS011;53438;48.898;2.308;2024-01-30T17:22:28;3.95;;;1.00;;
66581;SDS011;53438;48.898;2.308;2024-01-30T17:24:54;4.13;;;1.03;;
66581;SDS011;53438;48.898;2.308;2024-01-30T17:27:20;2.03;;;0.80;;
66581;SDS011;53438;48.898;2.308;2024-01-30T17:29:45;4.93;;;0.97;;
66581;SDS011;53438;48.898;2.308;2024-01-30T17:32:10;7.00;;;1.50;;
66581;SDS011;53438;48.898;2.308;2024-01-30T17:34:36;3.42;;;1.10;;
66581;SDS011;53438;48.898;2.308;2024-01-30T17:37:01;3.95;;;1.30;;